createdAt,value
2022-10-16T00:02:17.464Z,100425.13
2022-10-16T00:04:43.936Z,100423.00
2022-10-16T00:07:10.263Z,100361.50
2022-10-16T00:09:36.616Z,100414.72
2022-10-16T00:12:04.820Z,100388.50
2022-10-16T00:14:31.150Z,100389.06
2022-10-16T00:16:57.445Z,100416.13
2022-10-16T00:19:23.774Z,100368.19
2022-10-16T00:21:50.162Z,100397.03
2022-10-16T00:24:16.597Z,100395.44
2022-10-16T00:26:42.964Z,100404.16
2022-10-16T00:29:09.675Z,100404.28
2022-10-16T00:31:36.473Z,100322.28
2022-10-16T00:34:03.714Z,100390.53
2022-10-16T00:36:30.191Z,100412.56
2022-10-16T00:41:28.192Z,100397.16
2022-10-16T00:43:57.616Z,100360.28
2022-10-16T00:46:29.136Z,100414.28
2022-10-16T00:49:01.330Z,100407.28
2022-10-16T00:51:33.396Z,100412.72
2022-10-16T00:54:00.858Z,100388.63
2022-10-16T00:56:27.350Z,100398.31
2022-10-16T00:58:53.901Z,100389.56
2022-10-16T01:01:20.298Z,100383.91
2022-10-16T01:03:46.675Z,100373.25
2022-10-16T01:08:57.930Z,100437.53
2022-10-16T01:11:49.014Z,100378.59
2022-10-16T01:14:24.978Z,100437.97
2022-10-16T01:17:07.370Z,100422.69
2022-10-16T01:19:45.927Z,100435.25
2022-10-16T01:22:14.053Z,100402.56
2022-10-16T01:24:45.584Z,100432.84
2022-10-16T01:27:29.857Z,100436.41
2022-10-16T01:30:14.803Z,100434.56
2022-10-16T01:32:42.816Z,100434.69
2022-10-16T01:35:30.571Z,100446.81
2022-10-16T01:38:16.267Z,100432.97
2022-10-16T01:40:47.095Z,100458.03
2022-10-16T01:43:17.909Z,100402.84
2022-10-16T01:45:46.793Z,100448.41
2022-10-16T01:48:17.342Z,100415.13
2022-10-16T01:50:49.676Z,100437.06
2022-10-16T01:53:17.843Z,100407.75
2022-10-16T01:55:48.567Z,100438.81
2022-10-16T01:58:15.426Z,100423.53
2022-10-16T02:00:45.219Z,100405.94
2022-10-16T02:03:15.308Z,100458.03
2022-10-16T02:05:47.397Z,100331.31
2022-10-16T02:08:14.919Z,100432.69
2022-10-16T02:10:41.777Z,100455.06
2022-10-16T02:13:13.947Z,100402.72
2022-10-16T02:15:40.413Z,100446.22
2022-10-16T02:18:08.371Z,100431.25
2022-10-16T02:20:49.759Z,100405.13
2022-10-16T02:23:24.980Z,100429.28
2022-10-16T02:25:53.486Z,100418.25
2022-10-16T02:28:33.537Z,100420.16
2022-10-16T02:31:04.234Z,100446.22
2022-10-16T02:33:32.654Z,100450.66
2022-10-16T02:35:59.673Z,100420.94
2022-10-16T02:38:26.876Z,100412.66
2022-10-16T02:40:53.420Z,100410.16
2022-10-16T02:43:20.262Z,100418.72
2022-10-16T02:45:46.767Z,100407.13
2022-10-16T02:48:13.114Z,100411.59
2022-10-16T02:50:39.434Z,100437.91
2022-10-16T02:53:05.862Z,100456.94
2022-10-16T02:55:32.388Z,100450.09
2022-10-16T02:57:58.793Z,100459.69
2022-10-16T03:00:25.121Z,100432.09
2022-10-16T03:02:51.454Z,100436.13
2022-10-16T03:05:18.354Z,100404.97
2022-10-16T03:07:44.674Z,100407.53
2022-10-16T03:10:10.976Z,100408.13
2022-10-16T03:12:37.409Z,100301.16
2022-10-16T03:15:04.717Z,100392.06
2022-10-16T03:17:32.619Z,100409.97
2022-10-16T03:19:58.947Z,100420.44
2022-10-16T03:22:25.302Z,100423.06
2022-10-16T03:24:51.674Z,100392.28
2022-10-16T03:27:18.226Z,100447.22
2022-10-16T03:29:44.564Z,100436.00
2022-10-16T03:32:10.882Z,100416.34
2022-10-16T03:34:37.206Z,100456.16
2022-10-16T03:37:03.532Z,100397.81
2022-10-16T03:39:29.872Z,100457.00
2022-10-16T03:41:56.192Z,100413.22
2022-10-16T03:44:22.814Z,100452.59
2022-10-16T03:46:49.127Z,100408.38
2022-10-16T03:49:15.455Z,100437.44
2022-10-16T03:51:41.789Z,100444.44
2022-10-16T03:54:08.149Z,100462.72
2022-10-16T03:56:34.545Z,100471.56
2022-10-16T03:59:00.883Z,100456.13
2022-10-16T04:01:27.323Z,100463.69
2022-10-16T04:03:53.717Z,100432.88
2022-10-16T04:06:20.039Z,100477.47
2022-10-16T04:08:46.415Z,100445.06
2022-10-16T04:11:12.918Z,100410.75
2022-10-16T04:13:39.346Z,100448.69
2022-10-16T04:16:05.885Z,100502.31
2022-10-16T04:18:32.247Z,100469.03
2022-10-16T04:21:03.990Z,100497.00
2022-10-16T04:23:30.428Z,100466.41
2022-10-16T04:25:56.804Z,100341.44
2022-10-16T04:28:23.219Z,100471.63
2022-10-16T04:30:49.661Z,100485.22
2022-10-16T04:33:16.026Z,100460.63
2022-10-16T04:35:42.362Z,100470.44
2022-10-16T04:38:09.388Z,100504.06
2022-10-16T04:40:37.482Z,100509.38
2022-10-16T04:43:05.088Z,100424.81
2022-10-16T04:45:31.547Z,100521.97
2022-10-16T04:47:59.206Z,100538.34
2022-10-16T04:50:25.650Z,100500.09
2022-10-16T04:52:51.945Z,100487.66
2022-10-16T04:55:18.332Z,100493.63
2022-10-16T04:57:44.649Z,100476.94
2022-10-16T05:00:11.459Z,100487.28
2022-10-16T05:02:37.806Z,100519.97
2022-10-16T05:05:04.585Z,100494.41
2022-10-16T05:07:30.891Z,100533.09
2022-10-16T05:09:57.214Z,100540.81
2022-10-16T05:12:23.559Z,100535.66
2022-10-16T05:14:49.910Z,100558.09
2022-10-16T05:17:16.232Z,100547.78
2022-10-16T05:19:42.554Z,100518.66
2022-10-16T05:22:08.904Z,100511.69
2022-10-16T05:24:35.784Z,100563.25
2022-10-16T05:27:02.076Z,100544.50
2022-10-16T05:29:28.430Z,100563.25
2022-10-16T05:31:54.752Z,100541.22
2022-10-16T05:34:21.766Z,100586.16
2022-10-16T05:36:48.219Z,100554.19
2022-10-16T05:39:16.322Z,100555.16
2022-10-16T05:41:43.253Z,100548.16
2022-10-16T05:44:10.031Z,100557.66
2022-10-16T05:46:36.350Z,100558.00
2022-10-16T05:49:02.950Z,100558.88
2022-10-16T05:51:29.329Z,100521.88
2022-10-16T05:53:55.653Z,100512.53
2022-10-16T05:56:22.025Z,100574.28
2022-10-16T05:58:48.365Z,100601.84
2022-10-16T06:01:17.483Z,100578.75
2022-10-16T06:03:44.593Z,100606.00
2022-10-16T06:06:14.160Z,100606.75
2022-10-16T06:08:42.743Z,100588.00
2022-10-16T06:11:11.986Z,100613.66
2022-10-16T06:13:39.784Z,100568.09
2022-10-16T06:16:06.781Z,100598.69
2022-10-16T06:18:33.127Z,100596.84
2022-10-16T06:20:59.960Z,100580.31
2022-10-16T06:23:26.968Z,100622.94
2022-10-16T06:25:53.269Z,100594.97
2022-10-16T06:28:19.613Z,100576.53
2022-10-16T06:30:46.611Z,100613.00
2022-10-16T06:33:13.301Z,100650.78
2022-10-16T06:35:39.716Z,100633.84
2022-10-16T06:38:06.092Z,100633.84
2022-10-16T06:40:32.750Z,100609.97
2022-10-16T06:42:59.069Z,100662.50
2022-10-16T06:45:25.373Z,100668.56
2022-10-16T06:47:51.673Z,100586.94
2022-10-16T06:50:18.026Z,100580.09
2022-10-16T06:52:44.322Z,100647.28
2022-10-16T06:55:10.670Z,100681.75
2022-10-16T06:57:36.986Z,100672.47
2022-10-16T07:00:04.376Z,100657.19
2022-10-16T07:02:30.673Z,100664.28
2022-10-16T07:04:57.910Z,100673.63
2022-10-16T07:07:25.677Z,100677.31
2022-10-16T07:09:52.059Z,100688.81
2022-10-16T07:12:18.665Z,100710.38
2022-10-16T07:14:45.032Z,100683.88
2022-10-16T07:17:11.367Z,100702.63
2022-10-16T07:19:37.894Z,100717.47
2022-10-16T07:22:04.301Z,100690.88
2022-10-16T07:24:30.806Z,100740.66
2022-10-16T07:26:57.199Z,100689.03
2022-10-16T07:29:23.597Z,100748.47
2022-10-16T07:31:50.726Z,100698.47
2022-10-16T07:34:19.850Z,100750.66
2022-10-16T07:36:49.192Z,100707.31
2022-10-16T07:39:15.555Z,100703.03
2022-10-16T07:41:41.956Z,100668.63
2022-10-16T07:44:08.945Z,100643.31
2022-10-16T07:46:36.865Z,100726.34
2022-10-16T07:49:04.582Z,100748.41
2022-10-16T07:51:31.002Z,100706.56
2022-10-16T07:53:57.399Z,100748.56
2022-10-16T07:56:23.769Z,100724.25
2022-10-16T07:58:51.152Z,100760.47
2022-10-16T08:01:19.026Z,100761.19
2022-10-16T08:03:47.210Z,100778.31
2022-10-16T08:06:13.864Z,100765.28
2022-10-16T08:08:40.242Z,100778.66
2022-10-16T08:11:06.604Z,100731.22
2022-10-16T08:13:33.259Z,100773.06
2022-10-16T08:15:59.595Z,100689.66
2022-10-16T08:18:26.547Z,100674.75
2022-10-16T08:20:58.220Z,100747.66
2022-10-16T08:23:26.746Z,100764.78
2022-10-16T08:26:10.086Z,100788.72
2022-10-16T08:28:37.067Z,100807.38
2022-10-16T08:31:14.742Z,100787.94
2022-10-16T08:33:43.052Z,100777.75
2022-10-16T08:36:11.632Z,100831.28
2022-10-16T08:38:38.353Z,100808.44
2022-10-16T08:41:34.991Z,100855.97
2022-10-16T08:44:11.890Z,100737.06
2022-10-16T08:46:50.631Z,100801.63
2022-10-16T08:49:17.940Z,100809.84
2022-10-16T08:51:44.519Z,100785.75
2022-10-16T08:54:23.788Z,100868.50
2022-10-16T08:56:50.136Z,100868.78
2022-10-16T08:59:17.768Z,100821.38
2022-10-16T09:01:50.468Z,100845.19
2022-10-16T09:04:44.325Z,100883.63
2022-10-16T09:07:24.339Z,100830.91
2022-10-16T09:09:55.732Z,100817.94
2022-10-16T09:12:39.259Z,100868.91
2022-10-16T09:15:11.491Z,100884.06
2022-10-16T09:17:53.307Z,100881.63
2022-10-16T09:20:38.725Z,100888.97
2022-10-16T09:23:04.963Z,100881.03
2022-10-16T09:25:33.499Z,100892.47
2022-10-16T09:27:59.871Z,100858.56
2022-10-16T09:30:30.336Z,100901.53
2022-10-16T09:32:59.201Z,100872.44
2022-10-16T09:35:37.494Z,100889.06
2022-10-16T09:38:04.043Z,100897.16
2022-10-16T09:40:36.626Z,100784.09
2022-10-16T09:43:26.259Z,100881.75
2022-10-16T09:46:04.660Z,100845.28
2022-10-16T09:48:52.634Z,100760.44
2022-10-16T09:51:28.042Z,100885.03
2022-10-16T09:54:02.802Z,100845.41
2022-10-16T09:56:36.434Z,100831.81
2022-10-16T09:59:14.258Z,100863.56
2022-10-16T10:01:42.047Z,100831.31
2022-10-16T10:04:08.937Z,100772.91
2022-10-16T10:06:41.361Z,100849.19
2022-10-16T10:09:24.497Z,100890.00
2022-10-16T10:11:59.247Z,100873.78
2022-10-16T10:14:44.392Z,100855.31
2022-10-16T10:17:14.625Z,100722.25
2022-10-16T10:19:46.864Z,100874.22
2022-10-16T10:22:27.411Z,100856.50
2022-10-16T10:25:09.214Z,100894.13
2022-10-16T10:28:11.811Z,100883.69
2022-10-16T10:31:29.339Z,100829.19
2022-10-16T10:34:20.850Z,100828.81
2022-10-16T10:37:00.516Z,100839.81
2022-10-16T10:39:36.864Z,100845.13
2022-10-16T10:42:32.068Z,100878.22
2022-10-16T10:45:24.048Z,100836.25
2022-10-16T10:48:15.085Z,100892.09
2022-10-16T10:50:52.431Z,100864.41
2022-10-16T10:53:49.306Z,100882.19
2022-10-16T10:56:25.914Z,100892.69
2022-10-16T10:59:16.458Z,100898.84
2022-10-16T11:01:55.634Z,100830.41
2022-10-16T11:04:36.651Z,100910.59
2022-10-16T11:07:06.693Z,100807.75
2022-10-16T11:09:39.062Z,100814.53
2022-10-16T11:12:28.698Z,100913.44
2022-10-16T11:15:15.207Z,100885.28
2022-10-16T11:17:48.864Z,100897.03
2022-10-16T11:20:25.730Z,100847.56
2022-10-16T11:23:10.047Z,100889.28
2022-10-16T11:25:36.466Z,100872.19
2022-10-16T11:28:14.215Z,100899.75
2022-10-16T11:30:58.821Z,100922.38
2022-10-16T11:33:36.021Z,100900.13
2022-10-16T11:36:24.117Z,100917.63
2022-10-16T11:39:02.581Z,100877.28
2022-10-16T11:41:35.907Z,100887.94
2022-10-16T11:44:13.836Z,100887.31
2022-10-16T11:46:58.973Z,100885.19
2022-10-16T11:49:33.574Z,100910.03
2022-10-16T11:52:02.844Z,100922.06
2022-10-16T11:54:57.192Z,100927.09
2022-10-16T11:57:34.674Z,100892.16
2022-10-16T12:00:11.418Z,100895.84
2022-10-16T12:02:48.762Z,100918.38
2022-10-16T12:05:34.059Z,100912.69
2022-10-16T12:08:11.397Z,100911.38
2022-10-16T12:13:32.253Z,100925.78
2022-10-16T12:16:21.429Z,100889.19
2022-10-16T12:18:49.682Z,100904.66
2022-10-16T12:21:19.959Z,100910.50
2022-10-16T12:23:55.468Z,100898.38
2022-10-16T12:26:31.320Z,100886.63
2022-10-16T12:29:15.716Z,100876.72
2022-10-16T12:31:54.858Z,100912.41
2022-10-16T12:34:38.735Z,100912.47
2022-10-16T12:37:16.211Z,100896.25
2022-10-16T12:39:43.196Z,100867.75
2022-10-16T12:42:32.029Z,100919.28
2022-10-16T12:44:58.438Z,100874.47
2022-10-16T12:47:38.521Z,100894.78
2022-10-16T12:50:24.881Z,100861.13
2022-10-16T12:52:51.460Z,100866.84
2022-10-16T12:55:20.540Z,100851.97
2022-10-16T12:58:24.469Z,100912.63
2022-10-16T13:01:35.241Z,100906.78
2022-10-16T13:04:46.214Z,100913.13
2022-10-16T13:07:26.895Z,100913.56
2022-10-16T13:10:19.667Z,100903.78
2022-10-16T13:13:08.781Z,100910.75
2022-10-16T13:15:59.636Z,100908.25
2022-10-16T13:18:58.376Z,100902.88
2022-10-16T13:21:57.060Z,100909.72
2022-10-16T13:24:47.842Z,100906.72
2022-10-16T13:27:41.386Z,100902.03
2022-10-16T13:30:18.807Z,100859.88
2022-10-16T13:32:48.537Z,100916.13
2022-10-16T13:35:24.135Z,100862.41
2022-10-16T13:37:51.165Z,100899.91
2022-10-16T13:40:22.903Z,100916.34
2022-10-16T13:42:50.683Z,100881.25
2022-10-16T13:45:26.352Z,100899.25
2022-10-16T13:48:03.529Z,100922.81
2022-10-16T13:50:30.053Z,100888.31
2022-10-16T13:53:07.278Z,100884.69
2022-10-16T13:55:34.278Z,100909.25
2022-10-16T13:58:09.433Z,100859.44
2022-10-16T14:00:36.339Z,100913.44
2022-10-16T14:03:06.303Z,100925.13
2022-10-16T14:05:33.095Z,100907.31
2022-10-16T14:08:00.138Z,100883.22
2022-10-16T14:10:31.035Z,100876.00
2022-10-16T14:13:07.229Z,100922.56
2022-10-16T14:15:36.019Z,100933.44
2022-10-16T14:18:03.438Z,100923.66
2022-10-16T14:20:33.032Z,100930.75
2022-10-16T14:23:21.405Z,100902.03
2022-10-16T14:25:48.105Z,100879.59
2022-10-16T14:28:14.349Z,100933.06
2022-10-16T14:30:54.446Z,100926.56
2022-10-16T14:33:41.006Z,100840.59
2022-10-16T14:36:14.732Z,100910.41
2022-10-16T14:38:44.049Z,100928.84
2022-10-16T14:41:10.737Z,100919.53
2022-10-16T14:43:47.397Z,100898.47
2022-10-16T14:48:52.306Z,100920.47
2022-10-16T14:51:20.302Z,100938.38
2022-10-16T14:53:47.588Z,100894.97
2022-10-16T14:56:21.271Z,100923.94
2022-10-16T14:58:48.185Z,100851.97
2022-10-16T15:01:14.637Z,100910.88
2022-10-16T15:03:41.067Z,100903.56
2022-10-16T15:06:15.312Z,100897.56
2022-10-16T15:08:42.571Z,100891.94
2022-10-16T15:11:14.830Z,100873.22
2022-10-16T15:13:41.224Z,100870.66
2022-10-16T15:16:16.600Z,100883.47
2022-10-16T15:18:43.245Z,100869.13
2022-10-16T15:21:21.571Z,100888.53
2022-10-16T15:23:50.427Z,100890.81
2022-10-16T15:26:16.768Z,100859.41
2022-10-16T15:28:43.156Z,100882.78
2022-10-16T15:31:09.605Z,100900.13
2022-10-16T15:33:39.602Z,100863.97
2022-10-16T15:36:07.222Z,100890.13
2022-10-16T15:38:33.525Z,100872.59
2022-10-16T15:40:59.873Z,100847.75
2022-10-16T15:43:26.450Z,100897.22
2022-10-16T15:46:18.452Z,100860.16
2022-10-16T15:48:45.001Z,100889.16
2022-10-16T15:51:11.356Z,100872.59
2022-10-16T15:53:37.693Z,100888.56
2022-10-16T15:56:08.589Z,100882.00
2022-10-16T15:58:35.070Z,100857.63
2022-10-16T16:01:02.723Z,100812.09
2022-10-16T16:03:30.103Z,100774.44
2022-10-16T16:05:56.838Z,100879.47
2022-10-16T16:08:23.516Z,100881.00
2022-10-16T16:11:00.738Z,100829.03
2022-10-16T16:13:27.368Z,100850.97
2022-10-16T16:15:54.026Z,100876.69
2022-10-16T16:18:20.474Z,100824.38
2022-10-16T16:20:46.953Z,100884.31
2022-10-16T16:23:13.285Z,100824.34
2022-10-16T16:25:39.623Z,100874.53
2022-10-16T16:28:07.431Z,100843.28
2022-10-16T16:30:34.052Z,100836.50
2022-10-16T16:33:00.412Z,100872.84
2022-10-16T16:35:26.736Z,100899.56
2022-10-16T16:37:53.084Z,100899.06
2022-10-16T16:40:19.389Z,100892.06
2022-10-16T16:42:49.064Z,100878.22
2022-10-16T16:45:15.498Z,100906.97
2022-10-16T16:47:41.954Z,100882.88
2022-10-16T16:50:08.583Z,100865.13
2022-10-16T16:52:35.885Z,100885.22
2022-10-16T16:55:02.778Z,100883.31
2022-10-16T16:57:29.489Z,100879.28
2022-10-16T16:59:56.085Z,100883.66
2022-10-16T17:02:22.534Z,100902.44
2022-10-16T17:04:48.875Z,100877.13
2022-10-16T17:07:15.181Z,100888.94
2022-10-16T17:09:41.522Z,100915.84
2022-10-16T17:12:07.855Z,100922.38
2022-10-16T17:14:34.196Z,100907.56
2022-10-16T17:17:00.552Z,100912.38
2022-10-16T17:19:26.915Z,100883.59
2022-10-16T17:21:53.506Z,100878.50
2022-10-16T17:24:21.041Z,100848.66
2022-10-16T17:26:49.107Z,100916.88
2022-10-16T17:29:18.047Z,100868.66
2022-10-16T17:31:44.966Z,100922.38
2022-10-16T17:34:12.814Z,100885.84
2022-10-16T17:36:43.799Z,100862.00
2022-10-16T17:39:11.912Z,100852.91
2022-10-16T17:41:38.322Z,100852.84
2022-10-16T17:44:06.322Z,100934.06
2022-10-16T17:46:36.891Z,100934.28
2022-10-16T17:49:06.741Z,100913.19
2022-10-16T17:51:33.292Z,100894.53
2022-10-16T17:54:02.007Z,100904.03
2022-10-16T17:56:29.976Z,100881.28
2022-10-16T17:58:59.754Z,100914.41
2022-10-16T18:01:30.099Z,100767.09
2022-10-16T18:04:02.564Z,100881.03
2022-10-16T18:06:29.291Z,100893.16
2022-10-16T18:08:57.777Z,100912.56
2022-10-16T18:11:25.298Z,100884.78
2022-10-16T18:13:53.390Z,100908.63
2022-10-16T18:16:20.230Z,100905.66
2022-10-16T18:18:46.971Z,100899.72
2022-10-16T18:21:15.854Z,100903.16
2022-10-16T18:23:43.820Z,100929.56
2022-10-16T18:26:14.662Z,100938.34
2022-10-16T18:28:41.520Z,100977.84
2022-10-16T18:31:11.825Z,100985.06
2022-10-16T18:33:39.151Z,101021.44
2022-10-16T18:36:08.272Z,101038.22
2022-10-16T18:38:36.019Z,101032.19
2022-10-16T18:41:04.530Z,101034.81
2022-10-16T18:43:32.546Z,100999.19
2022-10-16T18:46:21.772Z,101019.63
2022-10-16T18:48:49.105Z,101023.19
2022-10-16T18:51:20.041Z,101027.66
2022-10-16T18:53:48.921Z,100974.16
2022-10-16T18:56:17.073Z,100988.97
2022-10-16T18:58:45.314Z,101030.53
2022-10-16T19:01:16.421Z,101033.31
2022-10-16T19:03:49.409Z,100976.22
2022-10-16T19:06:16.811Z,101016.63
2022-10-16T19:08:43.637Z,100963.47
2022-10-16T19:11:15.870Z,100976.94
2022-10-16T19:13:43.416Z,101014.03
2022-10-16T19:16:20.255Z,100997.31
2022-10-16T19:18:48.689Z,100987.84
2022-10-16T19:21:16.093Z,101000.16
2022-10-16T19:23:42.969Z,101016.66
2022-10-16T19:26:15.361Z,101019.47
2022-10-16T19:28:42.697Z,100962.91
2022-10-16T19:31:18.450Z,101016.50
2022-10-16T19:33:45.809Z,101001.72
2022-10-16T19:36:17.167Z,101030.38
2022-10-16T19:38:44.992Z,101015.03
2022-10-16T19:41:17.615Z,101033.78
2022-10-16T19:43:44.804Z,101024.78
2022-10-16T19:46:17.052Z,100992.97
2022-10-16T19:48:44.414Z,100971.38
2022-10-16T19:51:13.107Z,100968.53
2022-10-16T19:53:39.418Z,101009.69
2022-10-16T19:56:17.304Z,101021.06
2022-10-16T19:58:44.734Z,100983.97
2022-10-16T20:01:12.382Z,100990.34
2022-10-16T20:03:41.553Z,101016.25
2022-10-16T20:06:08.989Z,101008.31
2022-10-16T20:08:37.351Z,101003.59
2022-10-16T20:11:04.849Z,101003.69
2022-10-16T20:13:31.891Z,101018.66
2022-10-16T20:15:58.582Z,101012.63
2022-10-16T20:18:24.976Z,100996.94
2022-10-16T20:20:52.499Z,100984.13
2022-10-16T20:23:19.564Z,101022.22
2022-10-16T20:25:46.405Z,100994.84
2022-10-16T20:28:15.682Z,101020.78
2022-10-16T20:30:44.220Z,101020.09
2022-10-16T20:33:11.463Z,101017.50
2022-10-16T20:35:42.784Z,101022.06
2022-10-16T20:38:10.057Z,101003.91
2022-10-16T20:40:38.411Z,100975.38
2022-10-16T20:43:05.678Z,101010.19
2022-10-16T20:45:32.081Z,100995.72
2022-10-16T20:47:58.561Z,101001.44
2022-10-16T20:50:29.098Z,101005.69
2022-10-16T20:52:55.852Z,100978.16
2022-10-16T20:55:22.187Z,100979.28
2022-10-16T20:57:48.546Z,100970.44
2022-10-16T21:00:15.266Z,100901.34
2022-10-16T21:02:41.677Z,100963.81
2022-10-16T21:05:08.260Z,100961.81
2022-10-16T21:07:34.613Z,100978.69
2022-10-16T21:10:00.931Z,100993.44
2022-10-16T21:12:27.885Z,101001.03
2022-10-16T21:15:13.526Z,100969.88
2022-10-16T21:17:40.599Z,100944.75
2022-10-16T21:20:07.269Z,100983.97
2022-10-16T21:22:33.619Z,100947.78
2022-10-16T21:24:59.995Z,100960.22
2022-10-16T21:27:26.308Z,100956.56
2022-10-16T21:29:54.153Z,100968.53
2022-10-16T21:32:23.409Z,100992.56
2022-10-16T21:34:49.844Z,100974.97
2022-10-16T21:37:16.160Z,100972.31
2022-10-16T21:39:42.489Z,100972.31
2022-10-16T21:42:08.858Z,100986.28
2022-10-16T21:44:35.351Z,100959.50
2022-10-16T21:47:01.693Z,100959.72
2022-10-16T21:49:28.092Z,100962.09
2022-10-16T21:51:54.392Z,100968.53
2022-10-16T21:54:22.881Z,100987.56
2022-10-16T21:56:49.587Z,100950.06
2022-10-16T21:59:16.027Z,100924.13
2022-10-16T22:01:43.285Z,100983.56
2022-10-16T22:04:12.095Z,100982.72
2022-10-16T22:06:39.054Z,100969.28
2022-10-16T22:09:05.854Z,100974.25
2022-10-16T22:11:37.256Z,100979.06
2022-10-16T22:14:05.617Z,100949.69
2022-10-16T22:16:32.295Z,100948.06
2022-10-16T22:19:00.901Z,100949.78
2022-10-16T22:21:28.294Z,100973.75
2022-10-16T22:23:55.294Z,100939.88
2022-10-16T22:26:21.963Z,100945.78
2022-10-16T22:28:48.446Z,100939.03
2022-10-16T22:31:15.601Z,100954.94
2022-10-16T22:33:42.626Z,100924.91
2022-10-16T22:36:12.226Z,100941.88
2022-10-16T22:38:38.873Z,100967.03
2022-10-16T22:41:08.197Z,100970.41
2022-10-16T22:43:40.082Z,100954.19
2022-10-16T22:46:08.746Z,100964.66
2022-10-16T22:48:36.026Z,100972.97
2022-10-16T22:51:03.792Z,100970.41
2022-10-16T22:53:30.602Z,100935.88
2022-10-16T22:55:57.023Z,100973.53
2022-10-16T22:58:23.353Z,100954.78
2022-10-16T23:00:50.168Z,100977.09
2022-10-16T23:03:17.182Z,100983.69
2022-10-16T23:05:43.701Z,100938.00
2022-10-16T23:08:10.845Z,100981.00
2022-10-16T23:10:43.473Z,100977.69
2022-10-16T23:13:10.245Z,100953.56
2022-10-16T23:15:40.638Z,100968.16
2022-10-16T23:18:07.559Z,100958.91
2022-10-16T23:20:33.889Z,100936.44
2022-10-16T23:23:00.250Z,100963.38
2022-10-16T23:25:27.114Z,100955.63
2022-10-16T23:27:55.143Z,100970.97
2022-10-16T23:30:21.563Z,100969.50
2022-10-16T23:32:48.336Z,100985.13
2022-10-16T23:35:15.217Z,100947.47
2022-10-16T23:37:41.555Z,100939.19
2022-10-16T23:40:08.256Z,100972.22
2022-10-16T23:42:34.660Z,100918.34
2022-10-16T23:45:00.980Z,100968.78
2022-10-16T23:47:27.731Z,100984.22
2022-10-16T23:49:54.218Z,100968.25
2022-10-16T23:52:20.541Z,100929.31
2022-10-16T23:54:46.875Z,100934.34
2022-10-16T23:57:13.229Z,100931.97
2022-10-16T23:59:39.567Z,100933.56
